createdAt,value
2022-12-19T00:00:29.279Z,72.75
2022-12-19T00:02:57.010Z,83.95
2022-12-19T00:05:24.888Z,76.82
2022-12-19T00:07:53.688Z,80.68
2022-12-19T00:10:22.724Z,81.35
2022-12-19T00:12:50.441Z,75.93
2022-12-19T00:15:18.366Z,78.43
2022-12-19T00:17:45.986Z,78.68
2022-12-19T00:20:15.962Z,85.93
2022-12-19T00:22:46.557Z,80.97
2022-12-19T00:25:14.307Z,74.50
2022-12-19T00:27:43.852Z,76.13
2022-12-19T00:30:12.921Z,83.90
2022-12-19T00:32:40.550Z,80.53
2022-12-19T00:35:08.625Z,81.28
2022-12-19T00:37:36.322Z,82.80
2022-12-19T00:40:07.914Z,79.32
2022-12-19T00:42:35.639Z,77.53
2022-12-19T00:45:05.094Z,86.18
2022-12-19T00:47:32.876Z,82.35
2022-12-19T00:50:00.478Z,78.50
2022-12-19T00:52:28.156Z,79.80
2022-12-19T00:54:57.666Z,79.40
2022-12-19T00:57:25.512Z,80.60
2022-12-19T00:59:53.239Z,82.25
2022-12-19T01:02:22.371Z,80.80
2022-12-19T01:04:50.074Z,81.35
2022-12-19T01:07:17.702Z,76.50
2022-12-19T01:09:45.331Z,84.43
2022-12-19T01:12:31.728Z,89.25
2022-12-19T01:15:04.207Z,85.13
2022-12-19T01:17:40.776Z,81.60
2022-12-19T01:20:13.572Z,83.68
2022-12-19T01:22:41.195Z,81.90
2022-12-19T01:25:09.083Z,80.25
2022-12-19T01:27:36.801Z,80.88
2022-12-19T01:30:06.042Z,80.55
2022-12-19T01:32:36.748Z,80.25
2022-12-19T01:35:04.777Z,81.15
2022-12-19T01:37:32.413Z,78.30
2022-12-19T01:40:00.021Z,77.05
2022-12-19T01:42:27.754Z,81.55
2022-12-19T01:45:05.484Z,74.78
2022-12-19T01:47:41.632Z,90.60
2022-12-19T01:50:14.977Z,81.85
2022-12-19T01:52:43.337Z,74.65
2022-12-19T01:55:12.099Z,78.65
2022-12-19T01:57:41.052Z,77.45
2022-12-19T02:00:10.328Z,82.60
2022-12-19T02:02:44.786Z,78.15
2022-12-19T02:05:12.466Z,79.10
2022-12-19T02:07:41.852Z,84.90
2022-12-19T02:10:09.988Z,82.47
2022-12-19T02:12:40.945Z,80.50
2022-12-19T02:15:10.556Z,82.57
2022-12-19T02:17:52.620Z,76.10
2022-12-19T02:20:41.579Z,87.97
2022-12-19T02:23:32.528Z,80.90
2022-12-19T02:26:21.296Z,80.93
2022-12-19T02:29:29.394Z,81.53
2022-12-19T02:32:05.714Z,83.93
2022-12-19T02:34:44.386Z,78.90
2022-12-19T02:37:18.576Z,85.63
2022-12-19T02:39:53.517Z,75.55
2022-12-19T02:42:26.836Z,83.82
2022-12-19T02:47:27.993Z,80.95
2022-12-19T02:49:55.626Z,84.53
2022-12-19T02:52:48.208Z,83.90
2022-12-19T02:55:21.259Z,83.05
2022-12-19T02:58:10.708Z,86.28
2022-12-19T03:00:48.941Z,84.00
2022-12-19T03:03:24.495Z,82.60
2022-12-19T03:06:02.174Z,80.68
2022-12-19T03:08:36.250Z,77.63
2022-12-19T03:11:07.213Z,77.43
2022-12-19T03:13:39.004Z,81.07
2022-12-19T03:16:11.000Z,82.32
2022-12-19T03:18:40.380Z,82.38
2022-12-19T03:21:12.423Z,81.85
2022-12-19T03:23:41.098Z,79.45
2022-12-19T03:26:13.458Z,81.22
2022-12-19T03:28:46.893Z,87.32
2022-12-19T03:31:17.180Z,87.75
2022-12-19T03:33:48.613Z,82.57
2022-12-19T03:36:20.995Z,76.97
2022-12-19T03:38:50.057Z,89.03
2022-12-19T03:41:41.079Z,83.40
2022-12-19T03:44:11.250Z,86.30
2022-12-19T03:46:42.462Z,89.03
2022-12-19T03:49:11.643Z,74.15
2022-12-19T03:51:45.235Z,81.32
2022-12-19T03:54:17.400Z,84.22
2022-12-19T03:56:51.592Z,68.50
2022-12-19T03:59:27.064Z,86.10
2022-12-19T04:01:56.179Z,90.80
2022-12-19T04:04:26.671Z,77.97
2022-12-19T04:06:55.716Z,81.68
2022-12-19T04:09:25.206Z,77.10
2022-12-19T04:11:55.362Z,77.90
2022-12-19T04:14:27.608Z,78.80
2022-12-19T04:17:02.759Z,81.10
2022-12-19T04:22:15.775Z,75.93
2022-12-19T04:24:45.867Z,83.85
2022-12-19T04:27:15.309Z,86.53
2022-12-19T04:29:43.765Z,77.22
2022-12-19T04:32:12.585Z,80.82
2022-12-19T04:34:43.090Z,80.50
2022-12-19T04:37:12.369Z,77.93
2022-12-19T04:39:40.149Z,76.30
2022-12-19T04:42:07.805Z,78.50
2022-12-19T04:44:35.530Z,76.10
2022-12-19T04:47:03.270Z,73.72
2022-12-19T04:49:31.131Z,81.45
2022-12-19T04:52:00.168Z,74.65
2022-12-19T04:54:30.763Z,71.70
2022-12-19T04:56:58.401Z,73.50
2022-12-19T04:59:26.580Z,78.82
2022-12-19T05:01:54.652Z,77.85
2022-12-19T05:04:22.677Z,75.43
2022-12-19T05:06:50.330Z,71.88
2022-12-19T05:09:19.378Z,81.38
2022-12-19T05:11:47.022Z,69.05
2022-12-19T05:14:15.597Z,74.43
2022-12-19T05:16:43.276Z,76.97
2022-12-19T05:19:10.962Z,73.20
2022-12-19T05:21:38.583Z,78.10
2022-12-19T05:24:07.409Z,74.47
2022-12-19T05:26:36.466Z,75.82
2022-12-19T05:29:04.187Z,69.53
2022-12-19T05:31:31.861Z,78.95
2022-12-19T05:33:59.600Z,73.30
2022-12-19T05:36:32.301Z,70.88
2022-12-19T05:39:00.392Z,68.53
2022-12-19T05:41:28.093Z,75.47
2022-12-19T05:43:57.706Z,82.47
2022-12-19T05:46:27.340Z,73.70
2022-12-19T05:49:31.567Z,75.43
2022-12-19T05:51:59.223Z,70.97
2022-12-19T05:54:27.060Z,77.65
2022-12-19T05:56:54.730Z,68.03
2022-12-19T05:59:23.996Z,67.65
2022-12-19T06:01:51.683Z,80.53
2022-12-19T06:04:19.394Z,75.55
2022-12-19T06:06:47.076Z,79.55
2022-12-19T06:09:14.719Z,66.38
2022-12-19T06:11:42.400Z,65.47
2022-12-19T06:14:10.114Z,63.80
2022-12-19T06:16:39.246Z,71.10
2022-12-19T06:19:06.938Z,69.57
2022-12-19T06:21:34.574Z,66.20
2022-12-19T06:24:02.318Z,74.70
2022-12-19T06:26:31.111Z,65.43
2022-12-19T06:28:58.904Z,64.57
2022-12-19T06:31:26.778Z,62.92
2022-12-19T06:33:56.894Z,66.32
2022-12-19T06:36:26.138Z,60.85
2022-12-19T06:38:55.295Z,75.22
2022-12-19T06:41:40.700Z,60.72
2022-12-19T06:44:12.186Z,70.15
2022-12-19T06:46:40.868Z,65.10
2022-12-19T06:49:10.886Z,65.13
2022-12-19T06:51:38.720Z,61.50
2022-12-19T06:54:07.039Z,66.60
2022-12-19T06:56:37.063Z,64.53
2022-12-19T06:59:04.946Z,62.70
2022-12-19T07:01:48.044Z,60.78
2022-12-19T07:04:22.425Z,66.93
2022-12-19T07:06:50.127Z,67.60
2022-12-19T07:09:18.259Z,69.32
2022-12-19T07:11:46.100Z,61.65
2022-12-19T07:14:13.793Z,65.35
2022-12-19T07:16:42.322Z,66.63
2022-12-19T07:19:11.015Z,75.68
2022-12-19T07:21:41.002Z,62.97
2022-12-19T07:24:09.851Z,57.35
2022-12-19T07:26:37.863Z,65.75
2022-12-19T07:29:05.853Z,56.92
2022-12-19T07:31:36.112Z,60.55
2022-12-19T07:34:04.072Z,61.88
2022-12-19T07:36:31.741Z,65.88
2022-12-19T07:39:00.752Z,61.47
2022-12-19T07:41:28.461Z,60.08
2022-12-19T07:43:56.113Z,53.33
2022-12-19T07:46:23.852Z,57.00
2022-12-19T07:48:51.683Z,60.92
2022-12-19T07:51:19.357Z,54.38
2022-12-19T07:53:47.039Z,51.00
2022-12-19T07:56:17.343Z,51.13
2022-12-19T07:58:45.625Z,55.00
2022-12-19T08:01:13.334Z,51.70
2022-12-19T08:03:40.988Z,56.42
2022-12-19T08:06:09.244Z,53.50
2022-12-19T08:08:37.782Z,47.10
2022-12-19T08:11:10.461Z,47.97
2022-12-19T08:13:45.996Z,47.30
2022-12-19T08:16:15.062Z,54.75
2022-12-19T08:18:42.936Z,45.70
2022-12-19T08:21:11.481Z,52.35
2022-12-19T08:23:39.652Z,51.30
2022-12-19T08:26:09.359Z,47.25
2022-12-19T08:28:38.055Z,46.63
2022-12-19T08:31:18.700Z,45.28
2022-12-19T08:33:47.572Z,39.72
2022-12-19T08:36:19.024Z,43.30
2022-12-19T08:38:47.541Z,41.25
2022-12-19T08:41:16.666Z,34.17
2022-12-19T08:43:49.089Z,34.42
2022-12-19T08:46:18.843Z,31.58
2022-12-19T08:48:47.095Z,31.73
2022-12-19T08:51:16.587Z,34.90
2022-12-19T08:53:46.241Z,32.33
2022-12-19T08:56:16.831Z,32.33
2022-12-19T08:58:44.800Z,30.63
2022-12-19T09:01:15.306Z,33.25
2022-12-19T09:04:05.242Z,28.98
2022-12-19T09:06:32.980Z,32.85
2022-12-19T09:09:01.035Z,52.03
2022-12-19T09:11:29.130Z,41.92
2022-12-19T09:13:58.019Z,35.33
2022-12-19T09:16:27.534Z,31.95
2022-12-19T09:18:58.769Z,29.00
2022-12-19T09:21:28.876Z,28.02
2022-12-19T09:24:03.499Z,27.40
2022-12-19T09:26:34.964Z,23.17
2022-12-19T09:29:03.635Z,29.05
2022-12-19T09:31:47.849Z,25.67
2022-12-19T09:34:20.309Z,23.95
2022-12-19T09:36:50.380Z,25.15
2022-12-19T09:39:19.242Z,27.40
2022-12-19T09:42:40.552Z,20.38
2022-12-19T09:45:32.153Z,24.65
2022-12-19T09:48:01.615Z,25.65
2022-12-19T09:50:40.483Z,20.98
2022-12-19T09:53:16.753Z,21.63
2022-12-19T09:55:46.201Z,23.25
2022-12-19T09:58:21.281Z,26.30
2022-12-19T10:00:59.853Z,34.70
2022-12-19T10:03:32.193Z,28.65
2022-12-19T10:07:11.735Z,25.00
2022-12-19T10:10:18.202Z,23.90
2022-12-19T10:12:42.984Z,23.95
2022-12-19T10:15:24.551Z,22.88
2022-12-19T10:18:13.089Z,28.92
2022-12-19T10:20:46.169Z,22.27
2022-12-19T10:23:26.080Z,29.70
2022-12-19T10:26:01.100Z,24.10
2022-12-19T10:28:47.364Z,23.27
2022-12-19T10:31:22.371Z,21.33
2022-12-19T10:33:56.924Z,20.83
2022-12-19T10:36:48.923Z,24.27
2022-12-19T10:39:23.309Z,22.42
2022-12-19T10:41:56.730Z,22.35
2022-12-19T10:44:28.727Z,26.42
2022-12-19T10:46:56.436Z,32.10
2022-12-19T10:49:27.213Z,26.27
2022-12-19T10:51:59.984Z,36.65
2022-12-19T10:54:39.403Z,32.35
2022-12-19T10:57:25.435Z,31.58
2022-12-19T11:00:01.978Z,25.73
2022-12-19T11:02:41.699Z,21.27
2022-12-19T11:05:24.632Z,17.73
2022-12-19T11:08:04.854Z,19.50
2022-12-19T11:10:49.863Z,18.60
2022-12-19T11:18:11.873Z,21.83
2022-12-19T11:19:41.645Z,25.00
2022-12-19T11:23:41.784Z,19.15
2022-12-19T11:29:45.633Z,24.90
2022-12-19T11:30:38.165Z,18.77
2022-12-19T11:30:43.544Z,25.48
2022-12-19T11:34:06.264Z,19.00
2022-12-19T11:36:38.743Z,18.17
2022-12-19T11:39:13.029Z,17.65
2022-12-19T11:41:47.238Z,17.08
2022-12-19T11:44:27.391Z,21.00
2022-12-19T11:47:03.779Z,17.33
2022-12-19T11:49:37.362Z,18.67
2022-12-19T11:52:54.316Z,18.42
2022-12-19T11:55:08.452Z,17.27
2022-12-19T11:57:39.198Z,17.15
2022-12-19T12:00:13.816Z,17.13
2022-12-19T12:03:05.900Z,19.40
2022-12-19T12:05:44.167Z,18.38
2022-12-19T12:10:51.148Z,20.58
2022-12-19T12:16:22.270Z,17.55
2022-12-19T12:24:02.405Z,19.70
2022-12-19T12:31:11.788Z,17.90
2022-12-19T12:31:16.284Z,18.52
2022-12-19T12:31:38.257Z,18.40
2022-12-19T12:31:52.362Z,17.63
2022-12-19T12:31:54.264Z,17.40
2022-12-19T12:35:33.438Z,19.20
2022-12-19T12:38:36.029Z,15.75
2022-12-19T12:41:16.252Z,17.25
2022-12-19T12:44:01.719Z,16.45
2022-12-19T12:46:35.333Z,18.58
2022-12-19T12:49:05.908Z,18.42
2022-12-19T12:51:35.242Z,18.10
2022-12-19T12:54:07.510Z,18.10
2022-12-19T12:56:36.656Z,18.10
2022-12-19T12:59:22.821Z,15.23
2022-12-19T13:01:52.551Z,17.13
2022-12-19T13:04:28.366Z,14.38
2022-12-19T13:07:25.759Z,14.82
2022-12-19T13:10:06.864Z,17.25
2022-12-19T13:12:52.356Z,15.68
2022-12-19T13:15:44.220Z,17.40
2022-12-19T13:18:31.700Z,19.02
2022-12-19T13:21:03.095Z,15.77
2022-12-19T13:23:50.207Z,18.95
2022-12-19T13:26:33.427Z,16.23
2022-12-19T13:29:27.648Z,15.07
2022-12-19T13:32:10.822Z,18.55
2022-12-19T13:34:39.235Z,16.08
2022-12-19T13:39:48.418Z,16.73
2022-12-19T13:40:34.495Z,17.45
2022-12-19T13:43:34.047Z,19.08
2022-12-19T13:46:03.997Z,17.40
2022-12-19T13:48:34.852Z,17.50
2022-12-19T13:51:07.877Z,15.77
2022-12-19T13:53:37.635Z,16.75
2022-12-19T13:56:12.624Z,16.00
2022-12-19T13:58:47.699Z,16.25
2022-12-19T14:01:21.219Z,18.15
2022-12-19T14:03:51.306Z,18.00
2022-12-19T14:06:22.626Z,17.02
2022-12-19T14:09:58.588Z,22.50
2022-12-19T14:13:44.343Z,18.60
2022-12-19T14:15:02.144Z,19.80
2022-12-19T14:17:38.609Z,18.83
2022-12-19T14:22:03.526Z,18.40
2022-12-19T14:23:06.718Z,16.10
2022-12-19T14:28:15.196Z,19.42
2022-12-19T14:28:39.096Z,17.02
2022-12-19T14:31:09.892Z,15.25
2022-12-19T14:33:58.913Z,16.15
2022-12-19T14:36:32.839Z,20.08
2022-12-19T14:39:23.967Z,21.63
2022-12-19T14:42:11.665Z,21.95
2022-12-19T14:52:35.611Z,16.90
2022-12-19T14:52:51.579Z,19.05
2022-12-19T14:54:16.868Z,19.73
2022-12-19T14:54:55.085Z,19.27
2022-12-19T14:56:29.917Z,19.58
2022-12-19T14:59:01.178Z,20.05
2022-12-19T15:01:31.097Z,19.17
2022-12-19T15:04:48.011Z,21.55
2022-12-19T15:07:09.060Z,20.25
2022-12-19T15:11:03.851Z,21.15
2022-12-19T15:14:47.323Z,21.27
2022-12-19T15:16:00.748Z,19.98
2022-12-19T15:18:38.192Z,16.55
2022-12-19T15:21:08.372Z,17.90
2022-12-19T15:23:36.288Z,20.83
2022-12-19T15:26:08.551Z,19.73
2022-12-19T15:28:42.384Z,22.60
2022-12-19T15:31:35.491Z,21.80
2022-12-19T15:34:34.088Z,24.52
2022-12-19T15:37:03.263Z,23.48
2022-12-19T15:39:30.992Z,25.80
2022-12-19T15:42:01.180Z,23.48
2022-12-19T15:44:33.242Z,23.45
2022-12-19T15:47:03.329Z,23.55
2022-12-19T15:49:31.584Z,21.40
2022-12-19T15:51:59.682Z,20.48
2022-12-19T15:57:30.438Z,25.92
2022-12-19T15:59:59.282Z,24.63
2022-12-19T16:02:56.340Z,22.38
2022-12-19T16:05:17.462Z,23.50
2022-12-19T16:07:45.975Z,27.05
2022-12-19T16:10:15.147Z,26.13
2022-12-19T16:12:48.103Z,27.70
2022-12-19T16:15:21.011Z,25.55
2022-12-19T16:17:50.062Z,28.17
2022-12-19T16:20:20.083Z,29.00
2022-12-19T16:22:47.817Z,24.73
2022-12-19T16:25:16.475Z,25.15
2022-12-19T16:27:45.333Z,26.67
2022-12-19T16:30:23.754Z,30.80
2022-12-19T16:32:53.339Z,24.52
2022-12-19T16:35:34.505Z,30.67
2022-12-19T16:38:10.688Z,30.55
2022-12-19T16:40:38.609Z,30.85
2022-12-19T16:43:08.637Z,25.48
2022-12-19T16:45:36.375Z,27.23
2022-12-19T16:48:19.052Z,27.98
2022-12-19T16:50:47.012Z,29.42
2022-12-19T16:53:15.090Z,25.77
2022-12-19T16:55:43.368Z,25.38
2022-12-19T16:58:15.540Z,26.83
2022-12-19T17:00:43.487Z,27.40
2022-12-19T17:03:27.234Z,24.00
2022-12-19T17:05:55.271Z,24.35
2022-12-19T17:08:23.808Z,34.72
2022-12-19T17:10:51.697Z,35.53
2022-12-19T17:13:19.706Z,32.97
2022-12-19T17:15:54.321Z,35.45
2022-12-19T17:18:29.347Z,34.05
2022-12-19T17:20:57.080Z,31.85
2022-12-19T17:23:26.592Z,33.35
2022-12-19T17:25:55.372Z,30.30
2022-12-19T17:28:23.680Z,30.40
2022-12-19T17:30:54.350Z,30.15
2022-12-19T17:33:24.183Z,26.55
2022-12-19T17:35:53.608Z,35.80
2022-12-19T17:38:21.336Z,35.42
2022-12-19T17:40:49.073Z,31.30
2022-12-19T17:43:16.832Z,29.20
2022-12-19T17:45:44.997Z,28.40
2022-12-19T17:48:22.075Z,30.02
2022-12-19T17:50:49.925Z,24.42
2022-12-19T17:53:19.031Z,27.33
2022-12-19T17:55:46.769Z,24.48
2022-12-19T17:58:14.622Z,36.60
2022-12-19T18:00:43.829Z,31.02
2022-12-19T18:03:19.345Z,25.30
2022-12-19T18:05:47.370Z,24.20
2022-12-19T18:08:25.367Z,25.85
2022-12-19T18:10:53.301Z,30.75
2022-12-19T18:13:21.495Z,33.33
2022-12-19T18:15:49.360Z,35.33
2022-12-19T18:18:21.679Z,31.85
2022-12-19T18:20:50.177Z,31.83
2022-12-19T18:23:19.439Z,28.30
2022-12-19T18:25:49.156Z,24.00
2022-12-19T18:28:17.336Z,23.65
2022-12-19T18:30:46.888Z,19.05
2022-12-19T18:33:17.498Z,24.65
2022-12-19T18:35:48.418Z,26.48
2022-12-19T18:38:18.624Z,24.85
2022-12-19T18:40:48.855Z,29.70
2022-12-19T18:43:17.695Z,25.63
2022-12-19T18:45:48.137Z,23.73
2022-12-19T18:48:20.508Z,25.95
2022-12-19T18:50:48.196Z,28.45
2022-12-19T18:53:19.622Z,23.35
2022-12-19T18:55:49.118Z,20.90
2022-12-19T18:58:16.826Z,19.48
2022-12-19T19:00:45.011Z,22.13
2022-12-19T19:03:16.737Z,24.58
2022-12-19T19:05:44.723Z,21.45
2022-12-19T19:08:17.043Z,18.42
2022-12-19T19:10:46.424Z,21.83
2022-12-19T19:13:16.444Z,26.27
2022-12-19T19:15:48.802Z,38.28
2022-12-19T19:18:20.884Z,36.72
2022-12-19T19:20:54.349Z,28.02
2022-12-19T19:23:30.608Z,29.80
2022-12-19T19:25:58.337Z,31.25
2022-12-19T19:28:27.390Z,29.35
2022-12-19T19:30:56.093Z,29.40
2022-12-19T19:33:26.281Z,32.33
2022-12-19T19:35:57.613Z,24.15
2022-12-19T19:38:25.571Z,29.30
2022-12-19T19:40:53.328Z,25.08
2022-12-19T19:43:21.002Z,27.95
2022-12-19T19:45:51.462Z,23.35
2022-12-19T19:48:19.351Z,24.90
2022-12-19T19:50:48.081Z,30.92
2022-12-19T19:53:15.719Z,30.38
2022-12-19T19:55:45.866Z,26.95
2022-12-19T19:58:13.516Z,27.98
2022-12-19T20:00:41.428Z,26.58
2022-12-19T20:03:12.857Z,30.52
2022-12-19T20:05:42.937Z,31.85
2022-12-19T20:08:10.717Z,38.45
2022-12-19T20:10:38.695Z,34.35
2022-12-19T20:13:06.419Z,28.98
2022-12-19T20:15:34.711Z,26.40
2022-12-19T20:18:02.410Z,22.75
2022-12-19T20:20:31.438Z,23.17
2022-12-19T20:22:59.167Z,22.05
2022-12-19T20:25:26.902Z,29.80
2022-12-19T20:27:54.767Z,32.53
2022-12-19T20:30:22.520Z,27.88
2022-12-19T20:32:50.270Z,22.73
2022-12-19T20:35:17.939Z,21.80
2022-12-19T20:37:46.988Z,26.92
2022-12-19T20:40:14.874Z,22.33
2022-12-19T20:42:42.609Z,26.33
2022-12-19T20:45:10.881Z,21.75
2022-12-19T20:47:38.658Z,22.73
2022-12-19T20:50:08.088Z,23.67
2022-12-19T20:52:35.780Z,26.48
2022-12-19T20:55:05.480Z,28.17
2022-12-19T20:57:33.266Z,31.10
2022-12-19T21:00:00.946Z,27.58
2022-12-19T21:02:36.351Z,24.70
2022-12-19T21:05:16.521Z,25.95
2022-12-19T21:07:44.643Z,25.77
2022-12-19T21:10:13.860Z,21.48
2022-12-19T21:12:47.362Z,20.63
2022-12-19T21:15:15.754Z,22.77
2022-12-19T21:17:43.439Z,17.65
2022-12-19T21:20:12.005Z,19.35
2022-12-19T21:22:39.730Z,19.10
2022-12-19T21:25:08.509Z,17.98
2022-12-19T21:27:37.742Z,18.77
2022-12-19T21:30:07.300Z,18.40
2022-12-19T21:32:36.488Z,18.50
2022-12-19T21:35:04.347Z,18.33
2022-12-19T21:37:32.144Z,22.23
2022-12-19T21:39:59.898Z,19.55
2022-12-19T21:42:27.588Z,19.02
2022-12-19T21:44:56.706Z,23.85
2022-12-19T21:47:24.518Z,26.85
2022-12-19T21:49:52.357Z,23.67
2022-12-19T21:52:19.980Z,20.98
2022-12-19T21:54:47.675Z,26.52
2022-12-19T21:57:15.350Z,22.15
2022-12-19T21:59:43.005Z,19.40
2022-12-19T22:02:12.186Z,24.00
2022-12-19T22:04:39.968Z,18.35
2022-12-19T22:07:07.806Z,16.05
2022-12-19T22:09:35.604Z,17.85
2022-12-19T22:12:03.364Z,14.82
2022-12-19T22:14:31.035Z,16.73
2022-12-19T22:16:59.860Z,16.42
2022-12-19T22:19:29.011Z,17.45
2022-12-19T22:21:56.720Z,15.70
2022-12-19T22:24:25.435Z,17.25
2022-12-19T22:26:53.506Z,15.85
2022-12-19T22:29:21.186Z,17.63
2022-12-19T22:31:49.581Z,14.80
2022-12-19T22:34:19.419Z,18.50
2022-12-19T22:36:49.633Z,14.35
2022-12-19T22:39:19.955Z,17.13
2022-12-19T22:41:47.745Z,16.90
2022-12-19T22:44:18.199Z,18.65
2022-12-19T22:46:46.038Z,17.58
2022-12-19T22:49:13.938Z,16.90
2022-12-19T22:51:42.185Z,15.52
2022-12-19T22:54:12.247Z,16.98
2022-12-19T23:02:58.216Z,23.33
2022-12-19T23:05:25.997Z,25.52
2022-12-19T23:07:53.761Z,25.27
2022-12-19T23:10:21.487Z,25.73
2022-12-19T23:12:49.440Z,27.08
2022-12-19T23:15:17.126Z,36.53
2022-12-19T23:17:44.818Z,48.65
2022-12-19T23:20:14.604Z,57.55
2022-12-19T23:22:42.258Z,28.25
2022-12-19T23:25:11.092Z,24.65
2022-12-19T23:27:38.740Z,23.63
2022-12-19T23:30:07.467Z,20.70
2022-12-19T23:32:35.087Z,17.95
2022-12-19T23:35:02.745Z,14.80
2022-12-19T23:37:31.727Z,14.13
2022-12-19T23:39:59.361Z,13.02
2022-12-19T23:42:27.096Z,12.95
2022-12-19T23:44:54.927Z,13.70
2022-12-19T23:47:22.615Z,12.48
2022-12-19T23:49:50.358Z,13.27
2022-12-19T23:52:18.085Z,11.00
2022-12-19T23:54:47.329Z,11.68
2022-12-19T23:57:15.134Z,14.73
2022-12-19T23:59:42.816Z,13.48
